sensor_id;sensor_type;location;lat;lon;timestamp;pressure;altitude;pressure_sealevel;temperature;humidity
63901;BME280;50538;53.482;10.294;2023-03-25T00:02:58;99561.31;;;9.33;94.93
63901;BME280;50538;53.482;10.294;2023-03-25T00:12:58;99562.97;;;9.34;93.63
63901;BME280;50538;53.482;10.294;2023-03-25T00:23:03;99553.31;;;9.26;92.60
63901;BME280;50538;53.482;10.294;2023-03-25T00:33:04;99544.72;;;9.24;92.24
63901;BME280;50538;53.482;10.294;2023-03-25T00:43:05;99540.34;;;9.17;92.60
63901;BME280;50538;53.482;10.294;2023-03-25T00:53:06;99534.78;;;9.12;92.57
63901;BME280;50538;53.482;10.294;2023-03-25T01:03:07;99535.97;;;9.09;93.54
63901;BME280;50538;53.482;10.294;2023-03-25T01:13:08;99538.34;;;9.19;93.84
63901;BME280;50538;53.482;10.294;2023-03-25T01:23:09;99527.00;;;9.25;93.75
63901;BME280;50538;53.482;10.294;2023-03-25T01:33:09;99524.25;;;9.33;93.33
63901;BME280;50538;53.482;10.294;2023-03-25T01:43:10;99520.81;;;9.39;92.49
63901;BME280;50538;53.482;10.294;2023-03-25T01:53:12;99509.41;;;9.39;92.17
63901;BME280;50538;53.482;10.294;2023-03-25T02:03:13;99501.44;;;9.39;92.38
63901;BME280;50538;53.482;10.294;2023-03-25T02:13:15;99489.66;;;9.41;91.90
63901;BME280;50538;53.482;10.294;2023-03-25T02:33:51;99473.63;;;9.49;91.04
63901;BME280;50538;53.482;10.294;2023-03-25T02:44:30;99476.28;;;9.49;90.79
63901;BME280;50538;53.482;10.294;2023-03-25T02:54:33;99466.44;;;9.43;90.44
63901;BME280;50538;53.482;10.294;2023-03-25T03:04:53;99460.06;;;9.38;90.35
63901;BME280;50538;53.482;10.294;2023-03-25T03:25:43;99443.78;;;9.34;90.96
63901;BME280;50538;53.482;10.294;2023-03-25T03:35:51;99442.13;;;9.33;90.66
63901;BME280;50538;53.482;10.294;2023-03-25T03:46:03;99445.59;;;9.34;90.38
63901;BME280;50538;53.482;10.294;2023-03-25T03:56:06;99448.66;;;9.37;90.37
63901;BME280;50538;53.482;10.294;2023-03-25T04:06:18;99450.47;;;9.37;90.48
63901;BME280;50538;53.482;10.294;2023-03-25T04:16:21;99440.50;;;9.32;90.66
63901;BME280;50538;53.482;10.294;2023-03-25T04:26:21;99452.22;;;9.23;91.40
63901;BME280;50538;53.482;10.294;2023-03-25T04:36:23;99457.06;;;9.19;91.13
63901;BME280;50538;53.482;10.294;2023-03-25T04:46:24;99458.19;;;9.10;91.11
63901;BME280;50538;53.482;10.294;2023-03-25T04:56:24;99446.97;;;9.08;91.11
63901;BME280;50538;53.482;10.294;2023-03-25T05:06:25;99444.94;;;9.10;91.10
63901;BME280;50538;53.482;10.294;2023-03-25T05:16:25;99445.00;;;9.17;90.71
63901;BME280;50538;53.482;10.294;2023-03-25T05:26:26;99455.22;;;9.20;90.30
63901;BME280;50538;53.482;10.294;2023-03-25T05:36:28;99452.03;;;9.24;90.24
63901;BME280;50538;53.482;10.294;2023-03-25T05:46:28;99461.22;;;9.28;89.33
63901;BME280;50538;53.482;10.294;2023-03-25T05:56:29;99482.25;;;9.30;90.98
63901;BME280;50538;53.482;10.294;2023-03-25T06:06:30;99480.53;;;9.22;92.07
63901;BME280;50538;53.482;10.294;2023-03-25T06:16:33;99474.34;;;9.15;92.78
63901;BME280;50538;53.482;10.294;2023-03-25T06:26:34;99481.66;;;9.13;93.76
63901;BME280;50538;53.482;10.294;2023-03-25T06:36:34;99496.91;;;9.11;95.28
63901;BME280;50538;53.482;10.294;2023-03-25T06:46:35;99490.59;;;9.12;96.50
63901;BME280;50538;53.482;10.294;2023-03-25T06:56:35;99482.16;;;9.23;95.70
63901;BME280;50538;53.482;10.294;2023-03-25T07:06:36;99499.06;;;9.44;94.23
63901;BME280;50538;53.482;10.294;2023-03-25T07:16:36;99494.47;;;9.74;92.73
63901;BME280;50538;53.482;10.294;2023-03-25T07:26:36;99493.75;;;9.86;90.84
63901;BME280;50538;53.482;10.294;2023-03-25T07:36:37;99497.50;;;9.98;90.31
63901;BME280;50538;53.482;10.294;2023-03-25T07:46:37;99503.22;;;10.23;87.23
63901;BME280;50538;53.482;10.294;2023-03-25T07:56:37;99505.03;;;10.23;87.70
63901;BME280;50538;53.482;10.294;2023-03-25T08:06:39;99512.03;;;10.30;87.60
63901;BME280;50538;53.482;10.294;2023-03-25T08:16:39;99516.66;;;10.50;85.04
63901;BME280;50538;53.482;10.294;2023-03-25T08:26:40;99514.34;;;10.81;83.42
63901;BME280;50538;53.482;10.294;2023-03-25T08:36:40;99513.94;;;10.78;84.14
63901;BME280;50538;53.482;10.294;2023-03-25T08:46:44;99504.56;;;10.82;83.60
63901;BME280;50538;53.482;10.294;2023-03-25T08:56:44;99501.31;;;11.47;80.81
63901;BME280;50538;53.482;10.294;2023-03-25T09:06:44;99501.53;;;11.46;78.48
63901;BME280;50538;53.482;10.294;2023-03-25T09:16:45;99495.34;;;11.25;84.17
63901;BME280;50538;53.482;10.294;2023-03-25T09:26:46;99496.63;;;10.88;84.27
63901;BME280;50538;53.482;10.294;2023-03-25T09:36:46;99516.28;;;10.94;83.60
63901;BME280;50538;53.482;10.294;2023-03-25T09:46:47;99527.47;;;10.55;85.78
63901;BME280;50538;53.482;10.294;2023-03-25T09:56:48;99545.59;;;9.89;90.08
63901;BME280;50538;53.482;10.294;2023-03-25T10:17:38;99536.59;;;9.26;93.60
63901;BME280;50538;53.482;10.294;2023-03-25T10:27:45;99530.75;;;9.73;95.55
63901;BME280;50538;53.482;10.294;2023-03-25T10:37:51;99530.50;;;10.17;90.20
63901;BME280;50538;53.482;10.294;2023-03-25T10:47:56;99536.56;;;11.02;88.44
63901;BME280;50538;53.482;10.294;2023-03-25T10:57:59;99540.22;;;10.66;84.01
63901;BME280;50538;53.482;10.294;2023-03-25T11:08:01;99525.47;;;10.91;84.82
63901;BME280;50538;53.482;10.294;2023-03-25T11:18:10;99538.03;;;11.17;82.43
63901;BME280;50538;53.482;10.294;2023-03-25T11:28:17;99531.50;;;10.79;82.38
63901;BME280;50538;53.482;10.294;2023-03-25T11:38:21;99545.91;;;10.28;87.35
63901;BME280;50538;53.482;10.294;2023-03-25T11:48:23;99562.81;;;9.78;88.03
63901;BME280;50538;53.482;10.294;2023-03-25T11:58:33;99578.16;;;9.47;91.97
63901;BME280;50538;53.482;10.294;2023-03-25T12:09:02;99547.31;;;9.39;91.69
63901;BME280;50538;53.482;10.294;2023-03-25T12:19:22;99535.47;;;9.56;90.51
63901;BME280;50538;53.482;10.294;2023-03-25T12:50:30;99494.41;;;10.57;87.70
63901;BME280;50538;53.482;10.294;2023-03-25T13:10:42;99510.69;;;10.13;90.95
63901;BME280;50538;53.482;10.294;2023-03-25T13:21:02;99500.78;;;10.01;93.06
63901;BME280;50538;53.482;10.294;2023-03-25T13:31:05;99491.63;;;10.03;95.37
63901;BME280;50538;53.482;10.294;2023-03-25T13:41:16;99486.78;;;10.41;94.89
63901;BME280;50538;53.482;10.294;2023-03-25T13:51:19;99481.84;;;10.73;95.79
63901;BME280;50538;53.482;10.294;2023-03-25T14:11:37;99473.41;;;10.97;93.70
63901;BME280;50538;53.482;10.294;2023-03-25T14:21:41;99494.78;;;10.89;91.49
63901;BME280;50538;53.482;10.294;2023-03-25T14:32:02;99493.78;;;10.55;91.07
63901;BME280;50538;53.482;10.294;2023-03-25T14:52:13;99521.94;;;8.50;89.68
63901;BME280;50538;53.482;10.294;2023-03-25T15:02:25;99527.03;;;8.37;94.77
63901;BME280;50538;53.482;10.294;2023-03-25T15:12:26;99509.44;;;8.44;97.75
63901;BME280;50538;53.482;10.294;2023-03-25T15:22:26;99493.94;;;8.70;96.00
63901;BME280;50538;53.482;10.294;2023-03-25T15:32:39;99512.09;;;8.73;95.90
63901;BME280;50538;53.482;10.294;2023-03-25T15:53:29;99494.34;;;9.03;97.73
63901;BME280;50538;53.482;10.294;2023-03-25T16:03:32;99464.31;;;9.11;97.21
63901;BME280;50538;53.482;10.294;2023-03-25T16:13:33;99449.13;;;9.19;96.95
63901;BME280;50538;53.482;10.294;2023-03-25T16:23:35;99462.72;;;9.16;96.61
63901;BME280;50538;53.482;10.294;2023-03-25T16:33:37;99426.78;;;9.07;98.37
63901;BME280;50538;53.482;10.294;2023-03-25T16:43:38;99432.78;;;9.01;98.90
63901;BME280;50538;53.482;10.294;2023-03-25T16:53:39;99437.19;;;8.94;98.73
63901;BME280;50538;53.482;10.294;2023-03-25T17:03:45;99463.22;;;8.90;98.64
63901;BME280;50538;53.482;10.294;2023-03-25T17:13:48;99471.06;;;8.84;98.60
63901;BME280;50538;53.482;10.294;2023-03-25T17:23:52;99484.16;;;8.71;99.91
63901;BME280;50538;53.482;10.294;2023-03-25T17:33:59;99482.09;;;8.51;99.51
63901;BME280;50538;53.482;10.294;2023-03-25T17:44:00;99470.66;;;8.21;98.29
63901;BME280;50538;53.482;10.294;2023-03-25T17:54:00;99472.97;;;8.10;99.40
63901;BME280;50538;53.482;10.294;2023-03-25T18:04:01;99455.34;;;8.02;98.89
63901;BME280;50538;53.482;10.294;2023-03-25T18:24:30;99468.72;;;7.86;98.93
63901;BME280;50538;53.482;10.294;2023-03-25T18:34:32;99463.16;;;7.81;99.98
63901;BME280;50538;53.482;10.294;2023-03-25T18:44:33;99466.16;;;7.78;100.00
63901;BME280;50538;53.482;10.294;2023-03-25T18:54:33;99472.25;;;7.78;100.00
63901;BME280;50538;53.482;10.294;2023-03-25T19:04:34;99481.66;;;7.81;100.00
63901;BME280;50538;53.482;10.294;2023-03-25T19:14:35;99482.28;;;7.83;100.00
63901;BME280;50538;53.482;10.294;2023-03-25T19:24:35;99489.16;;;7.92;100.00
63901;BME280;50538;53.482;10.294;2023-03-25T19:34:36;99485.97;;;7.96;100.00
63901;BME280;50538;53.482;10.294;2023-03-25T19:44:36;99503.66;;;7.96;100.00
63901;BME280;50538;53.482;10.294;2023-03-25T19:54:37;99505.94;;;7.99;100.00
63901;BME280;50538;53.482;10.294;2023-03-25T20:04:37;99511.88;;;8.01;100.00
63901;BME280;50538;53.482;10.294;2023-03-25T20:14:38;99506.88;;;8.06;100.00
63901;BME280;50538;53.482;10.294;2023-03-25T20:24:39;99516.09;;;8.10;100.00
63901;BME280;50538;53.482;10.294;2023-03-25T20:34:39;99514.91;;;8.13;100.00
63901;BME280;50538;53.482;10.294;2023-03-25T20:44:40;99534.75;;;8.09;100.00
63901;BME280;50538;53.482;10.294;2023-03-25T20:54:40;99544.81;;;8.13;100.00
63901;BME280;50538;53.482;10.294;2023-03-25T21:04:41;99550.44;;;8.10;100.00
63901;BME280;50538;53.482;10.294;2023-03-25T21:14:43;99553.91;;;8.11;100.00
63901;BME280;50538;53.482;10.294;2023-03-25T21:24:44;99571.41;;;8.12;100.00
63901;BME280;50538;53.482;10.294;2023-03-25T21:34:44;99573.25;;;8.11;100.00
63901;BME280;50538;53.482;10.294;2023-03-25T21:44:44;99585.47;;;8.12;100.00
63901;BME280;50538;53.482;10.294;2023-03-25T21:54:45;99606.16;;;8.09;100.00
63901;BME280;50538;53.482;10.294;2023-03-25T22:04:47;99607.66;;;8.03;100.00
63901;BME280;50538;53.482;10.294;2023-03-25T22:14:48;99612.78;;;8.05;100.00
63901;BME280;50538;53.482;10.294;2023-03-25T22:24:48;99617.91;;;8.06;100.00
63901;BME280;50538;53.482;10.294;2023-03-25T22:34:49;99627.47;;;8.07;100.00
63901;BME280;50538;53.482;10.294;2023-03-25T22:44:49;99634.22;;;8.10;100.00
63901;BME280;50538;53.482;10.294;2023-03-25T22:54:50;99642.16;;;8.10;100.00
63901;BME280;50538;53.482;10.294;2023-03-25T23:04:50;99660.84;;;8.08;100.00
63901;BME280;50538;53.482;10.294;2023-03-25T23:14:53;99668.66;;;8.02;100.00
63901;BME280;50538;53.482;10.294;2023-03-25T23:24:55;99676.56;;;8.02;100.00
63901;BME280;50538;53.482;10.294;2023-03-25T23:34:58;99684.84;;;7.98;100.00
63901;BME280;50538;53.482;10.294;2023-03-25T23:44:59;99705.84;;;8.00;100.00
63901;BME280;50538;53.482;10.294;2023-03-25T23:54:59;99721.81;;;8.07;100.00
